Time;durP1;ratioP1;P1;durP2;ratioP2;P2;SDS_P1;SDS_P2;PMS_P1;PMS_P2;Temp;Humidity;BMP_temperature;BMP_pressure;BME280_temperature;BME280_humidity;BME280_pressure;Samples;Min_cycle;Max_cycle;Signal;HPM_P1;HPM_P2
2022/10/24 00:02:23;;;;;;;;;;;;;;;;;;;;;
2022/10/24 00:04:54;;;;;;;8.50;2.70;;;;;;;15.59;85.90;100310.66;6188640;23;20072;-88
2022/10/24 00:07:24;;;;;;;8.98;2.55;;;;;;;15.60;85.63;100306.19;6187874;23;20012;-88
2022/10/24 00:09:57;;;;;;;8.95;2.80;;;;;;;15.62;85.49;100301.69;6186102;23;20330;-89
2022/10/24 00:12:22;;;;;;;9.50;2.63;;;;;;;15.55;84.80;100292.09;6188090;23;20009;-88
2022/10/24 00:14:48;;;;;;;10.07;2.55;;;;;;;15.69;84.00;100308.72;6211038;23;20016;-88
2022/10/24 00:17:13;;;;;;;8.27;2.70;;;;;;;15.72;83.94;100292.69;6185985;23;20032;-88
2022/10/24 00:19:41;;;;;;;9.27;2.90;;;;;;;15.70;83.59;100306.00;6211020;23;20031;-88
2022/10/24 00:22:07;;;;;;;10.63;2.80;;;;;;;15.67;83.41;100290.13;6187620;23;20009;-88
2022/10/24 00:24:34;;;;;;;8.38;2.42;;;;;;;15.60;83.34;100282.22;6185989;23;20323;-89
2022/10/24 00:27:03;;;;;;;13.00;2.72;;;;;;;15.67;82.12;100287.44;6187060;23;20075;-88
2022/10/24 00:29:28;;;;;;;6.22;2.50;;;;;;;15.72;81.84;100282.91;6185932;23;20483;-88
2022/10/24 00:31:54;;;;;;;9.15;2.85;;;;;;;15.78;81.12;100287.22;6210847;23;20036;-88
2022/10/24 00:34:22;;;;;;;10.23;3.03;;;;;;;15.73;81.20;100278.44;6210997;23;20076;-88
2022/10/24 00:36:50;;;;;;;11.45;2.90;;;;;;;15.78;80.42;100292.56;6185498;23;20490;-89
2022/10/24 00:39:17;;;;;;;13.02;2.90;;;;;;;15.81;80.15;100292.50;6186384;23;20435;-89
2022/10/24 00:41:43;;;;;;;10.70;2.65;;;;;;;15.85;80.09;100303.97;6186913;23;20040;-89
2022/10/24 00:44:23;;;;;;;8.55;2.42;;;;;;;15.82;79.84;100280.94;6186976;23;20059;-89
2022/10/24 00:46:58;;;;;;;7.85;2.67;;;;;;;15.85;79.15;100280.88;6210928;23;20427;-89
2022/10/24 00:49:30;;;;;;;10.75;3.13;;;;;;;15.82;78.82;100290.72;6187012;23;20056;-88
2022/10/24 00:52:01;;;;;;;9.10;3.30;;;;;;;15.83;78.64;100277.34;6187409;23;20035;-89
2022/10/24 00:54:27;;;;;;;5.70;2.60;;;;;;;15.82;78.70;100280.06;6186792;23;20033;-89
2022/10/24 00:57:01;;;;;;;9.25;2.70;;;;;;;15.89;78.21;100287.03;6185303;23;20428;-88
2022/10/24 00:59:27;;;;;;;8.50;3.13;;;;;;;15.86;78.00;100274.63;6185552;23;20044;-88
2022/10/24 01:01:53;;;;;;;8.20;2.60;;;;;;;15.92;77.91;100265.63;6185707;23;20451;-88
2022/10/24 01:04:21;;;;;;;6.57;2.95;;;;;;;15.93;77.86;100278.03;6185877;23;20009;-88
2022/10/24 01:07:00;;;;;;;9.18;2.75;;;;;;;15.93;77.27;100288.69;6161090;23;20013;-88
2022/10/24 01:09:40;;;;;;;7.75;2.85;;;;;;;16.00;77.33;100285.00;6186251;23;20016;-89
2022/10/24 01:12:21;;;;;;;11.18;3.05;;;;;;;15.99;77.15;100286.78;6210456;23;20048;-89
2022/10/24 01:14:58;;;;;;;8.77;2.90;;;;;;;16.01;76.79;100284.97;6211224;23;20380;-88
2022/10/24 01:17:42;;;;;;;10.85;3.05;;;;;;;15.99;76.65;100276.13;6186643;23;20005;-88
2022/10/24 01:20:33;;;;;;;10.85;3.00;;;;;;;16.02;75.89;100289.41;6186083;23;20036;-88
2022/10/24 01:23:19;;;;;;;10.25;3.00;;;;;;;16.04;75.87;100276.03;6185463;23;20009;-89
2022/10/24 01:26:04;;;;;;;8.80;3.15;;;;;;;16.05;76.03;100274.25;6210919;23;20019;-88
2022/10/24 01:28:39;;;;;;;9.55;2.95;;;;;;;16.01;76.12;100268.97;6210179;23;20071;-88
2022/10/24 01:31:23;;;;;;;9.00;3.00;;;;;;;15.99;75.82;100262.81;6185044;23;20005;-89
2022/10/24 01:33:55;;;;;;;5.03;2.70;;;;;;;15.95;75.75;100261.13;6186710;23;20000;-88
2022/10/24 01:36:50;;;;;;;7.80;3.13;;;;;;;16.05;75.35;100279.56;6187110;23;20009;-89
2022/10/24 01:39:20;;;;;;;10.90;3.00;;;;;;;16.05;74.62;100256.47;6182508;23;20009;-89
2022/10/24 01:41:47;;;;;;;7.07;2.85;;;;;;;16.05;74.68;100258.25;6184985;23;20087;-89
2022/10/24 01:44:31;;;;;;;8.98;3.08;;;;;;;15.99;75.25;100252.16;6186872;23;20076;-88
2022/10/24 01:47:09;;;;;;;11.00;3.17;;;;;;;15.99;75.12;100254.81;6187097;23;20005;-89
2022/10/24 01:49:39;;;;;;;9.15;2.78;;;;;;;15.93;74.65;100256.72;6160684;23;20005;-88
2022/10/24 01:52:11;;;;;;;8.32;2.60;;;;;;;15.95;74.73;100250.47;6185120;23;20009;-89
2022/10/24 01:54:41;;;;;;;10.15;2.80;;;;;;;15.90;74.61;100240.81;6186472;23;20075;-88
2022/10/24 01:57:16;;;;;;;9.70;2.88;;;;;;;15.96;73.99;100243.34;6159955;23;20050;-90
2022/10/24 01:59:47;;;;;;;8.82;2.70;;;;;;;15.97;73.36;100242.44;6160533;23;20021;-88
2022/10/24 02:02:18;;;;;;;7.82;2.53;;;;;;;15.99;73.42;100244.16;6187085;23;20060;-89
2022/10/24 02:04:52;;;;;;;8.80;2.63;;;;;;;16.01;73.48;100236.13;6184774;23;20005;-89
2022/10/24 02:07:20;;;;;;;12.13;2.83;;;;;;;15.95;72.93;100230.94;6185961;23;20059;-88
2022/10/24 02:09:51;;;;;;;8.80;2.80;;;;;;;15.96;72.80;100236.22;6185332;23;20367;-89
2022/10/24 02:12:20;;;;;;;6.55;2.70;;;;;;;15.96;73.46;100246.00;6186202;23;20005;-89
2022/10/24 02:14:56;;;;;;;11.23;2.70;;;;;;;15.90;73.06;100238.16;6161123;23;20001;-88
2022/10/24 02:17:22;;;;;;;5.15;2.72;;;;;;;15.89;73.05;100236.41;6185012;23;20005;-88
2022/10/24 02:19:50;;;;;;;6.68;2.70;;;;;;;15.99;72.65;100248.63;6185120;23;20057;-89
2022/10/24 02:22:36;;;;;;;10.80;2.60;;;;;;;15.95;73.09;100246.91;6186426;23;20001;-89
2022/10/24 02:25:10;;;;;;;9.43;2.80;;;;;;;15.86;72.50;100232.00;6186253;23;20001;-89
2022/10/24 02:27:46;;;;;;;6.22;2.67;;;;;;;15.87;72.67;100227.56;6186086;23;20423;-88
2022/10/24 02:30:16;;;;;;;8.93;2.65;;;;;;;15.91;72.59;100250.56;6160453;23;20301;-88
2022/10/24 02:32:46;;;;;;;5.95;2.40;;;;;;;15.84;72.58;100239.13;6185130;23;20005;-89
2022/10/24 02:35:14;;;;;;;5.95;2.60;;;;;;;15.87;72.65;100243.53;6186675;23;20001;-88
2022/10/24 02:37:50;;;;;;;7.55;2.70;;;;;;;15.80;72.72;100231.25;6187245;23;20013;-88
2022/10/24 02:40:28;;;;;;;7.63;2.45;;;;;;;15.78;72.38;100237.47;6161435;23;20012;-88
2022/10/24 02:43:03;;;;;;;7.72;2.65;;;;;;;15.83;72.43;100240.06;6161624;23;20074;-88
2022/10/24 02:45:29;;;;;;;8.95;2.50;;;;;;;15.89;71.55;100247.94;6160399;23;20001;-88
2022/10/24 02:48:02;;;;;;;5.80;2.50;;;;;;;15.89;71.70;100247.94;6185949;23;20009;-88
2022/10/24 02:50:31;;;;;;;6.78;2.60;;;;;;;15.96;70.97;100238.88;6185427;23;20028;-88
2022/10/24 02:53:07;;;;;;;10.63;2.70;;;;;;;15.94;71.48;100226.53;6184911;23;20079;-88
2022/10/24 02:55:33;;;;;;;7.28;2.38;;;;;;;15.96;71.09;100238.00;6185961;23;20044;-88
2022/10/24 02:57:58;;;;;;;8.27;2.42;;;;;;;15.89;71.39;100231.94;6159943;23;20017;-89
2022/10/24 03:00:24;;;;;;;7.95;2.30;;;;;;;15.89;71.27;100231.94;6185760;23;20012;-88
2022/10/24 03:02:51;;;;;;;8.45;2.20;;;;;;;15.88;71.09;100234.63;6159513;23;20005;-89
2022/10/24 03:05:17;;;;;;;7.80;2.30;;;;;;;15.88;71.04;100234.63;6186172;23;20424;-88
2022/10/24 03:07:42;;;;;;;7.63;2.35;;;;;;;15.87;71.29;100235.53;6185856;23;20009;-88
2022/10/24 03:10:08;;;;;;;6.35;2.17;;;;;;;15.91;70.87;100242.56;6159693;23;20063;-88
2022/10/24 03:12:36;;;;;;;9.95;2.42;;;;;;;15.99;70.72;100229.97;6159505;23;20009;-88
2022/10/24 03:15:02;;;;;;;6.93;2.45;;;;;;;15.95;70.94;100236.25;6159664;23;20005;-89
2022/10/24 03:17:28;;;;;;;5.10;2.38;;;;;;;15.94;70.92;100247.84;6186038;23;20013;-88
2022/10/24 03:19:53;;;;;;;9.23;2.28;;;;;;;15.89;71.52;100239.94;6185869;23;20076;-88
2022/10/24 03:22:22;;;;;;;8.52;2.30;;;;;;;15.88;71.12;100230.16;6159462;23;20045;-88
2022/10/24 03:24:50;;;;;;;8.25;2.28;;;;;;;15.87;71.23;100247.06;6162372;23;20005;-88
2022/10/24 03:27:25;;;;;;;9.90;2.47;;;;;;;15.90;71.38;100244.34;6162003;23;20522;-89
2022/10/24 03:29:51;;;;;;;5.70;2.60;;;;;;;15.82;71.94;100238.31;6163144;23;20059;-89
2022/10/24 03:32:16;;;;;;;8.13;2.55;;;;;;;15.80;71.51;100229.44;6160372;23;20013;-89
2022/10/24 03:34:44;;;;;;;4.05;2.17;;;;;;;15.82;71.98;100248.09;6186480;23;20009;-89
2022/10/24 03:37:12;;;;;;;7.80;2.42;;;;;;;15.71;72.39;100241.16;6147792;23;20400;-88
2022/10/24 03:39:40;;;;;;;8.75;2.33;;;;;;;15.69;72.39;100234.13;6185889;23;20431;-88
2022/10/24 03:42:06;;;;;;;9.23;2.40;;;;;;;15.71;72.33;100234.97;6209257;23;20013;-88
2022/10/24 03:44:33;;;;;;;7.18;2.50;;;;;;;15.73;72.38;100219.84;6209454;23;20092;-87
2022/10/24 03:46:59;;;;;;;8.40;2.38;;;;;;;15.72;72.14;100221.63;6160365;23;20005;-88
2022/10/24 03:49:25;;;;;;;12.55;2.50;;;;;;;15.69;72.54;100212.81;6185898;23;20037;-88
2022/10/24 03:51:50;;;;;;;5.85;2.30;;;;;;;15.69;72.46;100216.38;6187032;23;20434;-88
2022/10/24 03:54:26;;;;;;;;;;;;;;;;;;;;;
2022/10/24 03:56:51;;;;;;;9.32;2.97;;;;;;;15.64;72.76;100209.34;6185895;23;20084;-88
2022/10/24 03:59:25;;;;;;;6.55;2.55;;;;;;;15.71;72.29;100219.84;6185019;23;20005;-89
2022/10/24 04:01:50;;;;;;;6.18;2.60;;;;;;;15.77;72.12;100237.53;6187235;23;20001;-88
2022/10/24 04:04:16;;;;;;;6.43;2.38;;;;;;;15.84;71.98;100230.28;6187437;23;20005;-88
2022/10/24 04:06:41;;;;;;;10.20;2.70;;;;;;;15.88;71.92;100227.50;6187473;23;20446;-89
2022/10/24 04:09:07;;;;;;;9.90;2.70;;;;;;;15.85;71.52;100232.91;6186392;23;20008;-87
2022/10/24 04:11:33;;;;;;;9.27;2.60;;;;;;;15.94;71.69;100226.53;6211819;23;20008;-88
2022/10/24 04:13:59;;;;;;;7.45;2.22;;;;;;;15.86;71.79;100217.81;6185833;23;20009;-89
2022/10/24 04:16:25;;;;;;;8.85;2.30;;;;;;;15.80;71.96;100225.91;6211704;23;20311;-89
2022/10/24 04:18:51;;;;;;;7.20;2.17;;;;;;;15.85;71.78;100224.06;6185771;23;20111;-88
2022/10/24 04:21:18;;;;;;;9.43;2.58;;;;;;;15.75;72.15;100215.34;6211675;23;20382;-88
2022/10/24 04:23:43;;;;;;;8.15;2.63;;;;;;;15.71;72.36;100222.53;6187144;23;20308;-88
2022/10/24 04:26:12;;;;;;;8.27;2.45;;;;;;;15.81;72.11;100214.38;6211742;23;20009;-88
2022/10/24 04:28:38;;;;;;;10.98;2.72;;;;;;;15.86;71.87;100245.31;6187544;23;20001;-89
2022/10/24 04:31:03;;;;;;;11.88;2.60;;;;;;;15.74;71.99;100202.94;6210506;23;20076;-88
2022/10/24 04:33:29;;;;;;;6.97;2.40;;;;;;;15.74;71.96;100214.47;6210577;23;20009;-87
2022/10/24 04:35:56;;;;;;;6.00;2.20;;;;;;;15.82;71.66;100224.09;6186913;23;20005;-87
2022/10/24 04:38:22;;;;;;;10.30;2.33;;;;;;;15.71;71.79;100214.53;6186522;23;20328;-87
2022/10/24 04:40:49;;;;;;;7.05;2.30;;;;;;;15.77;71.22;100214.44;6187967;23;20017;-87
2022/10/24 04:43:15;;;;;;;8.05;2.42;;;;;;;15.74;71.75;100211.81;6187097;23;20009;-87
2022/10/24 04:45:41;;;;;;;6.72;2.20;;;;;;;15.72;71.60;100221.63;6187001;23;20001;-87
2022/10/24 04:48:06;;;;;;;9.30;2.40;;;;;;;15.74;71.76;100224.25;6185730;23;20309;-87
2022/10/24 04:50:31;;;;;;;7.00;2.30;;;;;;;15.73;71.78;100214.53;6185702;23;20456;-87
2022/10/24 04:52:57;;;;;;;5.18;2.10;;;;;;;15.68;72.18;100222.59;6185738;23;20015;-87
2022/10/24 04:55:22;;;;;;;9.27;2.20;;;;;;;15.72;72.25;100234.09;6187631;23;20033;-87
2022/10/24 04:57:50;;;;;;;7.95;2.40;;;;;;;15.77;71.84;100227.75;6161190;23;20013;-87
2022/10/24 05:00:18;;;;;;;14.38;2.25;;;;;;;15.80;71.99;100237.44;6186651;23;20009;-88
2022/10/24 05:02:43;;;;;;;8.02;2.40;;;;;;;15.75;72.14;100232.22;6187209;23;20059;-87
2022/10/24 05:05:09;;;;;;;7.00;2.10;;;;;;;15.81;72.15;100233.91;6187128;23;20005;-87
2022/10/24 05:07:42;;;;;;;11.77;2.47;;;;;;;15.83;72.15;100234.72;6187088;23;20017;-87
2022/10/24 05:10:08;;;;;;;6.80;2.72;;;;;;;15.83;72.41;100228.53;6139815;23;20015;-89
2022/10/24 05:12:33;;;;;;;9.23;2.58;;;;;;;15.75;72.33;100212.69;6187121;23;20076;-87
2022/10/24 05:14:59;;;;;;;8.15;2.35;;;;;;;15.85;71.94;100230.25;6136648;23;20036;-88
2022/10/24 05:17:24;;;;;;;9.80;2.47;;;;;;;15.77;72.21;100217.09;6187067;23;20005;-87
2022/10/24 05:19:50;;;;;;;7.07;2.40;;;;;;;15.77;72.21;100225.09;6185255;23;20005;-87
2022/10/24 05:22:15;;;;;;;10.35;2.30;;;;;;;15.82;72.59;100234.78;6135588;23;20016;-88
2022/10/24 05:24:40;;;;;;;9.82;2.55;;;;;;;15.83;72.62;100237.38;6160434;23;20016;-87
2022/10/24 05:27:09;;;;;;;7.57;2.30;;;;;;;15.86;72.93;100255.13;6160973;23;20012;-87
2022/10/24 05:29:36;;;;;;;7.68;2.45;;;;;;;15.78;73.06;100236.59;6187409;23;20404;-87
2022/10/24 05:32:05;;;;;;;12.75;2.47;;;;;;;15.86;72.67;100263.97;6160397;23;20401;-88
2022/10/24 05:34:32;;;;;;;8.95;2.38;;;;;;;15.84;73.02;100260.44;6161029;23;20005;-87
2022/10/24 05:37:01;;;;;;;10.35;2.35;;;;;;;15.91;72.72;100263.88;6168363;23;20024;-87
2022/10/24 05:39:26;;;;;;;8.52;2.45;;;;;;;15.88;72.92;100245.28;6186803;23;20005;-87
2022/10/24 05:41:52;;;;;;;8.38;2.70;;;;;;;15.85;73.11;100242.72;6185690;23;20023;-87
2022/10/24 05:44:20;;;;;;;8.35;2.20;;;;;;;15.93;72.87;100257.63;6209898;23;20016;-87
2022/10/24 05:46:45;;;;;;;10.57;2.28;;;;;;;15.96;72.47;100254.00;6160390;23;20013;-87
2022/10/24 05:49:12;;;;;;;6.05;2.10;;;;;;;15.92;72.52;100239.84;6186392;23;20039;-87
2022/10/24 05:51:38;;;;;;;7.70;2.50;;;;;;;15.95;72.72;100246.91;6184897;23;20093;-87
2022/10/24 05:54:03;;;;;;;8.05;2.40;;;;;;;15.95;72.60;100249.59;6185097;23;20017;-87
2022/10/24 05:56:29;;;;;;;8.07;2.38;;;;;;;15.93;72.59;100254.97;6185361;23;20059;-87
2022/10/24 05:58:58;;;;;;;10.15;2.30;;;;;;;15.90;72.74;100251.47;6187415;23;20300;-87
2022/10/24 06:01:23;;;;;;;11.30;2.40;;;;;;;15.91;72.49;100253.22;6186254;23;20004;-88
2022/10/24 06:03:49;;;;;;;9.32;2.17;;;;;;;15.86;72.19;100255.97;6185138;23;20005;-86
2022/10/24 06:06:22;;;;;;;8.15;2.40;;;;;;;15.85;72.46;100261.34;6185719;23;20021;-87
2022/10/24 06:08:48;;;;;;;11.00;2.50;;;;;;;15.89;72.06;100257.72;6211224;23;20018;-87
2022/10/24 06:11:22;;;;;;;9.40;2.53;;;;;;;15.97;72.34;100264.66;6186195;23;20327;-88
2022/10/24 06:13:50;;;;;;;7.40;2.47;;;;;;;15.84;72.42;100257.78;6186726;23;20016;-88
2022/10/24 06:16:24;;;;;;;11.25;2.47;;;;;;;15.94;72.44;100275.38;6186763;23;20427;-87
2022/10/24 06:18:50;;;;;;;7.75;2.30;;;;;;;15.80;72.91;100261.41;6186240;23;20009;-87
2022/10/24 06:21:15;;;;;;;7.65;2.45;;;;;;;15.87;72.56;100275.50;6184436;23;20510;-87
2022/10/24 06:23:44;;;;;;;11.00;2.60;;;;;;;15.87;73.00;100289.69;6160196;23;20373;-87
2022/10/24 06:26:10;;;;;;;9.18;2.50;;;;;;;15.82;73.07;100280.06;6209678;23;20067;-87
2022/10/24 06:28:40;;;;;;;13.80;2.50;;;;;;;15.77;73.11;100262.38;6184948;23;20009;-88
2022/10/24 06:31:14;;;;;;;12.25;2.80;;;;;;;15.78;72.83;100273.91;6185904;23;20041;-87
2022/10/24 06:33:40;;;;;;;10.43;2.45;;;;;;;15.76;73.22;100276.63;6186479;23;20438;-88
2022/10/24 06:36:10;;;;;;;9.85;2.42;;;;;;;15.71;73.63;100264.25;6184579;23;20104;-88
2022/10/24 06:38:45;;;;;;;8.07;2.20;;;;;;;15.68;73.92;100272.34;6161965;23;20019;-88
2022/10/24 06:41:15;;;;;;;10.77;2.63;;;;;;;15.66;73.75;100287.47;6185961;23;20008;-87
2022/10/24 06:43:44;;;;;;;9.32;2.40;;;;;;;15.65;73.92;100280.38;6186288;23;20024;-88
2022/10/24 06:46:16;;;;;;;10.57;2.83;;;;;;;15.64;74.30;100306.16;6184230;23;20432;-87
2022/10/24 06:48:47;;;;;;;8.68;2.70;;;;;;;15.68;74.33;100306.97;6186708;23;20093;-89
2022/10/24 06:51:15;;;;;;;10.65;3.00;;;;;;;15.57;74.40;100301.78;6186984;23;20044;-87
2022/10/24 06:53:43;;;;;;;10.63;2.55;;;;;;;15.61;74.39;100331.91;6159756;23;20384;-88
2022/10/24 06:56:08;;;;;;;9.55;2.50;;;;;;;15.58;74.47;100300.00;6185830;23;20009;-88
2022/10/24 06:58:39;;;;;;;11.38;2.70;;;;;;;15.71;74.11;100298.91;6184350;23;20016;-88
2022/10/24 07:01:20;;;;;;;13.15;2.65;;;;;;;15.73;74.30;100318.41;6186257;23;20001;-88
2022/10/24 07:03:49;;;;;;;8.80;2.30;;;;;;;15.70;73.80;100306.00;6184755;23;20435;-88
2022/10/24 07:06:24;;;;;;;11.50;2.72;;;;;;;15.73;74.60;100321.06;6184695;23;20013;-88
2022/10/24 07:08:57;;;;;;;12.05;2.60;;;;;;;15.78;75.00;100338.72;6160473;23;20012;-89
2022/10/24 07:11:23;;;;;;;9.88;2.53;;;;;;;15.77;75.46;100325.44;6161409;23;20017;-89
2022/10/24 07:13:54;;;;;;;10.38;2.58;;;;;;;15.71;76.17;100333.53;6160146;23;20371;-90
2022/10/24 07:16:28;;;;;;;12.70;2.50;;;;;;;15.65;76.64;100326.53;6185414;23;20443;-89
2022/10/24 07:18:53;;;;;;;13.50;2.90;;;;;;;15.50;77.19;100326.75;6185785;23;20017;-90
2022/10/24 07:21:26;;;;;;;11.10;2.60;;;;;;;15.50;77.81;100340.06;6159718;23;20015;-88
2022/10/24 07:23:54;;;;;;;12.52;2.60;;;;;;;15.52;78.38;100338.28;6185858;23;20013;-88
2022/10/24 07:26:26;;;;;;;9.93;2.63;;;;;;;15.50;78.69;100340.06;6184081;23;20005;-87
2022/10/24 07:29:00;;;;;;;12.25;2.70;;;;;;;15.41;78.70;100342.91;6186364;23;20005;-88
2022/10/24 07:31:31;;;;;;;11.10;2.40;;;;;;;15.53;78.44;100348.91;6159526;23;20063;-88
2022/10/24 07:33:57;;;;;;;12.18;2.70;;;;;;;15.58;78.33;100353.28;6159778;23;20005;-87
2022/10/24 07:36:29;;;;;;;11.70;2.83;;;;;;;15.71;77.72;100357.50;6184784;23;20040;-88
2022/10/24 07:38:55;;;;;;;9.30;2.30;;;;;;;15.73;76.92;100369.03;6188326;23;20006;-88
2022/10/24 07:41:28;;;;;;;9.75;2.78;;;;;;;15.71;76.86;100349.50;6188953;23;20008;-89
2022/10/24 07:44:05;;;;;;;11.13;2.60;;;;;;;15.85;76.26;100366.13;6187686;23;20406;-88
2022/10/24 07:46:31;;;;;;;17.00;2.72;;;;;;;15.82;75.76;100358.19;6188009;23;20088;-89
2022/10/24 07:48:59;;;;;;;10.85;2.50;;;;;;;15.96;75.51;100363.25;6187233;23;20111;-86
2022/10/24 07:51:28;;;;;;;10.80;2.70;;;;;;;16.18;74.42;100374.38;6187540;23;20055;-87
2022/10/24 07:53:55;;;;;;;11.80;2.40;;;;;;;16.27;73.65;100385.75;6185941;23;20092;-88
2022/10/24 07:56:27;;;;;;;12.50;2.83;;;;;;;16.29;74.69;100399.03;6186164;23;20075;-87
2022/10/24 07:59:08;;;;;;;9.32;2.45;;;;;;;16.23;75.40;100409.81;6186322;23;20008;-88
2022/10/24 08:01:41;;;;;;;9.85;2.53;;;;;;;16.23;74.83;100409.81;6188556;23;20015;-88
2022/10/24 08:04:11;;;;;;;11.32;2.28;;;;;;;16.12;75.38;100403.81;6187983;23;20001;-87
2022/10/24 08:06:41;;;;;;;10.77;2.70;;;;;;;16.07;75.33;100393.25;6188149;23;20011;-91
2022/10/24 08:09:07;;;;;;;8.77;2.35;;;;;;;16.08;75.66;100396.78;6187716;23;20005;-88
2022/10/24 08:11:33;;;;;;;9.20;2.50;;;;;;;16.04;75.91;100409.28;6211366;23;20139;-89
2022/10/24 08:14:03;;;;;;;9.70;2.22;;;;;;;15.95;75.93;100405.00;6187974;23;20023;-91
2022/10/24 08:16:29;;;;;;;9.18;2.25;;;;;;;15.96;75.95;100404.09;6187199;23;20005;-89
2022/10/24 08:19:13;;;;;;;12.90;2.33;;;;;;;16.08;75.37;100415.44;6187092;23;20099;-90
2022/10/24 08:21:42;;;;;;;10.73;2.40;;;;;;;16.06;74.83;100412.81;6189027;23;20005;-90
2022/10/24 08:24:07;;;;;;;12.25;2.55;;;;;;;16.15;75.22;100457.97;6187417;23;20005;-91
2022/10/24 08:26:33;;;;;;;12.27;2.72;;;;;;;16.27;74.73;100425.75;6211185;23;20036;-89
2022/10/24 08:29:00;;;;;;;10.43;2.33;;;;;;;16.61;73.07;100427.72;6187452;23;20434;-89
2022/10/24 08:31:34;;;;;;;12.32;2.53;;;;;;;16.69;73.10;100427.56;6187995;23;20055;-90
2022/10/24 08:34:02;;;;;;;10.13;2.60;;;;;;;16.71;72.95;100450.63;6188168;23;20028;-89
2022/10/24 08:36:31;;;;;;;10.95;2.15;;;;;;;16.59;72.91;100458.03;6186605;23;20075;-90
2022/10/24 08:39:02;;;;;;;9.98;2.97;;;;;;;16.58;72.37;100424.25;6212080;23;20059;-89
2022/10/24 08:41:43;;;;;;;11.10;2.40;;;;;;;16.62;72.33;100439.28;6187155;23;20008;-88
2022/10/24 08:44:38;;;;;;;;;;;;;;;;;;;;;
2022/10/24 08:47:32;;;;;;;;;;;;;;;;;;;;;
2022/10/24 08:50:10;;;;;;;10.07;2.58;;;;;;;16.88;72.45;100433.44;6188427;23;20084;-89
2022/10/24 08:52:58;;;;;;;9.60;2.22;;;;;;;17.41;70.39;100448.22;6210703;23;20036;-89
2022/10/24 08:55:33;;;;;;;12.52;3.25;;;;;;;17.62;68.82;100433.47;6188075;23;20001;-89
2022/10/24 08:58:00;;;;;;;12.73;2.75;;;;;;;17.92;68.11;100453.22;6187536;23;20005;-89
2022/10/24 09:00:35;;;;;;;9.05;2.50;;;;;;;18.25;67.28;100447.91;6186971;23;20001;-90
2022/10/24 09:03:42;;;;;;;10.82;2.50;;;;;;;18.53;65.66;100464.94;6187582;23;20039;-90
2022/10/24 09:06:21;;;;;;;8.43;2.28;;;;;;;18.67;64.33;100440.47;6185756;23;20009;-90
2022/10/24 09:09:19;;;;;;;8.38;2.35;;;;;;;18.97;64.01;100452.13;6186053;23;20398;-89
2022/10/24 09:12:25;;;;;;;10.40;2.45;;;;;;;18.92;63.31;100455.84;6211166;23;20009;-90
2022/10/24 09:14:58;;;;;;;6.82;2.15;;;;;;;18.95;63.29;100459.31;6182687;23;20059;-89
2022/10/24 09:17:33;;;;;;;10.38;2.40;;;;;;;18.87;63.58;100463.13;6187030;23;20479;-88
2022/10/24 09:20:06;;;;;;;9.20;2.40;;;;;;;18.97;63.36;100467.28;6186621;23;20028;-89
2022/10/24 09:22:39;;;;;;;10.18;2.42;;;;;;;18.99;62.38;100470.81;6186771;23;20009;-89
2022/10/24 09:25:07;;;;;;;9.07;2.42;;;;;;;19.08;62.71;100466.97;6210987;23;20012;-89
2022/10/24 09:27:36;;;;;;;9.63;2.60;;;;;;;19.11;63.18;100462.41;6185311;23;20008;-89
2022/10/24 09:30:18;;;;;;;8.90;2.38;;;;;;;19.24;62.57;100485.22;6186888;23;20005;-88
2022/10/24 09:32:44;;;;;;;10.65;2.30;;;;;;;19.32;62.14;100474.25;6188046;23;20004;-89
2022/10/24 09:35:41;;;;;;;9.93;2.65;;;;;;;19.50;62.16;100475.47;6210446;23;20041;-89
2022/10/24 09:38:27;;;;;;;9.18;2.60;;;;;;;19.67;61.49;100486.56;6177771;23;20021;-89
2022/10/24 09:40:57;;;;;;;6.15;2.13;;;;;;;19.79;59.95;100506.75;6209974;23;20008;-88
2022/10/24 09:43:49;;;;;;;10.45;2.47;;;;;;;19.85;60.50;100486.88;6187234;23;20005;-89
2022/10/24 09:46:27;;;;;;;8.23;2.35;;;;;;;19.91;59.26;100484.00;6186478;23;20001;-88
2022/10/24 09:48:56;;;;;;;9.57;2.42;;;;;;;20.15;58.39;100471.56;6186316;23;20009;-88
2022/10/24 09:51:28;;;;;;;11.88;2.60;;;;;;;20.24;58.78;100504.31;6185180;23;20009;-89
2022/10/24 09:54:01;;;;;;;10.17;2.60;;;;;;;20.16;58.62;100509.06;6210325;23;20013;-89
2022/10/24 09:56:43;;;;;;;9.70;2.50;;;;;;;20.12;58.61;100493.13;6186734;23;20012;-89
2022/10/24 09:59:16;;;;;;;10.32;2.60;;;;;;;20.33;57.94;100515.66;6185808;23;20009;-88
2022/10/24 10:01:48;;;;;;;9.60;2.58;;;;;;;20.47;58.12;100497.25;6184692;23;20009;-89
2022/10/24 10:04:25;;;;;;;13.73;3.03;;;;;;;20.55;57.55;100499.69;6184008;23;20047;-89
2022/10/24 10:06:56;;;;;;;10.15;2.92;;;;;;;20.42;58.26;100507.28;6185510;23;20084;-90
2022/10/24 10:09:30;;;;;;;12.07;2.80;;;;;;;20.16;57.42;100514.41;6186301;23;20005;-89
2022/10/24 10:12:16;;;;;;;9.32;2.70;;;;;;;19.93;57.97;100495.56;6185124;23;20009;-89
2022/10/24 10:14:53;;;;;;;11.15;2.92;;;;;;;19.66;58.59;100532.19;6187350;23;20462;-90
2022/10/24 10:18:03;;;;;;;10.88;2.78;;;;;;;19.29;60.45;100519.91;6184902;23;20009;-89
2022/10/24 10:20:49;;;;;;;;;;;;;;;;;;;;;
2022/10/24 10:23:27;;;;;;;11.15;2.60;;;;;;;18.64;61.82;100541.38;6187427;23;20080;-89
2022/10/24 10:26:16;;;;;;;13.45;2.90;;;;;;;18.45;62.65;100535.63;6186972;23;20035;-89
2022/10/24 10:29:08;;;;;;;11.38;2.88;;;;;;;18.76;62.30;100533.94;6186610;23;20037;-90
2022/10/24 10:32:08;;;;;;;12.25;2.58;;;;;;;19.24;61.95;100530.75;6186828;23;20059;-90
2022/10/24 10:34:53;;;;;;;13.77;2.88;;;;;;;19.60;60.14;100548.41;6185384;23;20009;-89
2022/10/24 10:37:36;;;;;;;12.10;2.80;;;;;;;19.86;58.90;100556.53;6184480;23;20023;-90
2022/10/24 10:40:09;;;;;;;11.88;2.80;;;;;;;19.86;58.81;100561.03;6210238;23;20408;-90
2022/10/24 10:42:53;;;;;;;11.32;2.60;;;;;;;19.82;58.85;100567.41;6185182;23;20412;-89
2022/10/24 10:45:56;;;;;;;15.18;3.08;;;;;;;19.45;59.49;100574.78;6210312;23;20005;-91
2022/10/24 10:48:37;;;;;;;10.77;2.40;;;;;;;19.28;60.65;100574.41;6153636;23;20072;-91
2022/10/24 10:51:36;;;;;;;11.98;3.10;;;;;;;19.10;61.63;100577.59;6186515;23;20005;-91
2022/10/24 10:54:39;;;;;;;12.57;2.92;;;;;;;18.80;65.16;100592.72;6209600;23;20052;-90
2022/10/24 10:57:18;;;;;;;9.93;2.55;;;;;;;18.47;66.95;100606.94;6186427;23;20005;-93
2022/10/24 11:00:14;;;;;;;13.65;2.30;;;;;;;18.11;68.43;100600.69;6186102;23;20019;-93
2022/10/24 11:02:57;;;;;;;6.75;2.15;;;;;;;17.75;69.51;100607.78;6186522;23;20009;-93
2022/10/24 11:05:47;;;;;;;12.68;2.70;;;;;;;17.47;70.28;100595.03;6211624;23;20380;-90
2022/10/24 11:08:57;;;;;;;7.18;2.20;;;;;;;17.26;72.28;100600.81;6186620;23;20349;-90
2022/10/24 11:12:09;;;;;;;8.57;2.35;;;;;;;17.07;73.43;100608.28;6186115;23;20008;-90
2022/10/24 11:14:46;;;;;;;9.32;2.53;;;;;;;16.89;75.45;100589.97;6211084;23;20016;-90
2022/10/24 11:18:07;;;;;;;9.55;2.60;;;;;;;16.98;74.97;100600.47;6187356;23;20032;-90
2022/10/24 11:20:58;;;;;;;10.02;2.63;;;;;;;17.48;74.87;100591.44;6097124;23;20093;-90
2022/10/24 11:23:30;;;;;;;9.80;2.42;;;;;;;18.09;73.24;100580.28;6184257;23;20013;-89
2022/10/24 11:26:08;;;;;;;9.40;2.40;;;;;;;18.72;71.51;100595.63;6212804;23;20009;-90
2022/10/24 11:28:38;;;;;;;11.25;2.78;;;;;;;19.13;69.17;100598.94;6212258;23;20062;-90
2022/10/24 11:31:23;;;;;;;10.38;2.83;;;;;;;19.39;66.83;100585.66;6212281;23;20036;-89
2022/10/24 11:34:04;;;;;;;11.18;2.63;;;;;;;19.73;66.81;100598.09;6187220;23;20005;-89
2022/10/24 11:37:06;;;;;;;13.95;2.95;;;;;;;19.75;65.58;100597.13;6211922;23;20020;-89
2022/10/24 11:39:49;;;;;;;10.43;2.90;;;;;;;19.47;64.87;100601.53;6186012;23;20012;-89
2022/10/24 11:42:46;;;;;;;13.70;2.90;;;;;;;19.27;64.99;100604.78;6190366;23;20009;-89
2022/10/24 11:45:18;;;;;;;10.98;2.50;;;;;;;19.25;65.54;100604.84;6196159;23;20009;-89
2022/10/24 11:48:01;;;;;;;10.47;2.50;;;;;;;19.22;64.07;100607.59;6218995;23;20082;-90
2022/10/24 11:50:29;;;;;;;10.00;2.58;;;;;;;19.01;64.88;100603.75;6188127;23;20248;-90
2022/10/24 11:53:04;;;;;;;9.90;2.50;;;;;;;19.21;66.14;100583.53;6211712;23;20116;-90
2022/10/24 11:55:46;;;;;;;14.23;2.88;;;;;;;19.65;64.75;100581.34;6186910;23;20096;-90
2022/10/24 11:58:22;;;;;;;9.80;2.45;;;;;;;20.05;61.96;100580.97;6166122;23;20096;-91